Featherville, Idaho
Current Conditions -  °F | °C
As of 4:58 PM on Friday 28 Nov 2014 (Local Time) from KMUO Reporting Station
Broken Clouds Broken Clouds  
Wind Chill: 57°   Ceiling: 19000
Heat Index: 57°   Visibility: 10mi
Dew Point: 25°   Wind: 9mph
Humidity: 29%   Direction: 280°W
Pressure: 29.68"   Gusts: NA
Location:  43.2609°N, 115.781°W
Report Text: KMUO 282358Z AUTO 28008KT 10SM SCT120 BKN190 14/M04 A2968 RMK AO2 CIG 120 RWY12 SLP050 T01381040 10173 20086 57017
Loading
Personal Weather Stations






























Interactive Weather Map New forecast layout! Learn more

10-Day Weather Forecast

Advertisements
Track Severe Weather on mobile